Time;durP1;ratioP1;P1;durP2;ratioP2;P2;SDS_P1;SDS_P2;PMS_P1;PMS_P2;Temp;Humidity;BMP_temperature;BMP_pressure;BME280_temperature;BME280_humidity;BME280_pressure;Samples;Min_cycle;Max_cycle;Signal;HPM_P1;HPM_P2
2022/10/14 00:02:55;;;;;;;4.20;2.63;;;;;;;18.36;64.23;96853.22;10566657;28;20616;-31
2022/10/14 00:07:56;;;;;;;2.57;1.70;;;;;;;18.37;64.50;96854.06;10560218;28;20063;-30
2022/10/14 00:12:56;;;;;;;3.10;2.00;;;;;;;18.38;64.91;96858.28;10564572;28;20297;-31
2022/10/14 00:17:58;;;;;;;2.85;1.83;;;;;;;18.37;64.48;96852.38;10564401;28;20329;-31
2022/10/14 00:22:58;;;;;;;3.10;2.15;;;;;;;18.37;65.04;96859.13;10561789;28;20036;-31
2022/10/14 00:28:02;;;;;;;5.53;2.70;;;;;;;18.43;65.46;96854.06;10553974;28;20070;-31
2022/10/14 00:33:02;;;;;;;4.32;2.42;;;;;;;18.41;65.34;96845.63;10575967;28;20059;-31
2022/10/14 00:38:03;;;;;;;1.85;1.73;;;;;;;18.44;64.58;96856.63;10575177;28;20044;-30
2022/10/14 00:43:03;;;;;;;4.20;2.00;;;;;;;18.40;64.40;96852.38;10575829;28;20027;-30
2022/10/14 00:48:04;;;;;;;2.47;1.60;;;;;;;18.38;64.46;96836.31;10555716;28;20080;-30
2022/10/14 00:53:05;;;;;;;4.38;1.80;;;;;;;18.37;64.61;96843.91;10572119;28;20031;-31
2022/10/14 00:58:06;;;;;;;4.25;2.10;;;;;;;18.36;64.51;96842.22;10565886;28;20415;-30
2022/10/14 01:03:18;;;;;;;3.83;2.00;;;;;;;18.36;64.40;96832.94;10577048;28;20032;-31
2022/10/14 01:08:33;;;;;;;2.50;1.70;;;;;;;18.35;64.51;96840.53;10571618;28;20084;-31
2022/10/14 01:13:39;;;;;;;1.73;1.52;;;;;;;18.34;64.71;96839.69;10555927;28;20020;-30
2022/10/14 01:18:57;;;;;;;2.03;1.60;;;;;;;18.35;64.37;96840.53;10552698;28;20118;-30
2022/10/14 01:24:19;;;;;;;1.67;1.50;;;;;;;18.36;64.50;96837.16;10547950;28;20032;-31
2022/10/14 01:29:54;;;;;;;3.58;1.83;;;;;;;18.39;65.51;96824.47;10553533;28;20508;-31
2022/10/14 01:35:08;;;;;;;5.47;1.95;;;;;;;18.41;65.41;96831.25;10565784;28;20028;-30
2022/10/14 01:40:17;;;;;;;3.15;1.90;;;;;;;18.36;65.08;96817.75;10552349;28;20034;-35
2022/10/14 01:45:21;;;;;;;1.55;1.42;;;;;;;18.41;64.49;96825.34;10565737;28;20057;-31
2022/10/14 01:50:24;;;;;;;2.00;1.73;;;;;;;18.29;64.42;96800.81;10569036;28;20065;-32
2022/10/14 01:55:29;;;;;;;3.13;2.03;;;;;;;18.37;64.53;96823.63;10548058;28;20088;-32
2022/10/14 02:00:30;;;;;;;2.58;1.55;;;;;;;18.35;64.07;96820.25;10544587;28;20046;-30
2022/10/14 02:05:45;;;;;;;1.67;1.38;;;;;;;18.30;64.44;96814.31;10546806;28;20028;-31
2022/10/14 02:11:05;;;;;;;2.05;1.60;;;;;;;18.35;64.54;96810.13;10536731;28;20035;-30
2022/10/14 02:16:11;;;;;;;2.10;1.75;;;;;;;18.35;64.44;96799.97;10564027;28;20024;-30
2022/10/14 02:21:21;;;;;;;2.10;1.58;;;;;;;18.35;64.63;96784.78;10535624;28;20395;-31
2022/10/14 02:26:24;;;;;;;2.30;1.80;;;;;;;18.34;64.50;96781.38;10569560;28;20069;-31
2022/10/14 02:31:27;;;;;;;1.92;1.50;;;;;;;18.36;64.85;96781.38;10550936;28;20027;-31
2022/10/14 02:36:28;;;;;;;4.60;2.05;;;;;;;18.39;65.18;96766.19;10563375;28;20028;-31
2022/10/14 02:41:33;;;;;;;2.28;1.83;;;;;;;18.39;65.31;96761.09;10560696;28;20039;-31
2022/10/14 02:46:34;;;;;;;2.65;1.77;;;;;;;18.40;64.90;96748.44;10548289;28;20031;-30
2022/10/14 02:51:35;;;;;;;2.70;1.65;;;;;;;18.38;64.38;96749.28;10544767;28;20423;-30
2022/10/14 02:56:35;;;;;;;2.55;1.75;;;;;;;18.37;64.35;96747.59;10544933;28;20024;-31
2022/10/14 03:01:35;;;;;;;3.67;1.83;;;;;;;18.33;64.25;96736.59;10542039;28;20026;-31
2022/10/14 03:06:37;;;;;;;2.25;1.50;;;;;;;18.32;64.42;96734.91;10542058;28;20476;-30
2022/10/14 03:11:37;;;;;;;2.05;1.65;;;;;;;18.35;64.35;96736.63;10544031;28;20027;-31
2022/10/14 03:16:41;;;;;;;2.58;1.30;;;;;;;18.34;64.25;96742.53;10547292;28;20493;-30
2022/10/14 03:21:42;;;;;;;1.75;1.38;;;;;;;18.34;64.39;96737.47;10553365;28;20038;-31
2022/10/14 03:26:48;;;;;;;3.13;1.52;;;;;;;18.26;64.36;96713.78;10547509;28;20031;-30
2022/10/14 03:31:53;;;;;;;1.33;1.23;;;;;;;18.33;64.62;96723.09;10542706;28;20031;-30
2022/10/14 03:37:00;;;;;;;1.90;1.80;;;;;;;18.34;64.75;96723.09;10545998;28;20490;-31
2022/10/14 03:42:02;;;;;;;2.90;1.50;;;;;;;18.40;65.16;96722.28;10541695;28;20080;-32
2022/10/14 03:47:10;;;;;;;2.10;1.58;;;;;;;18.36;64.88;96708.75;10553269;28;20023;-30
2022/10/14 03:52:11;;;;;;;2.25;1.42;;;;;;;18.39;64.51;96711.28;10546762;28;20027;-30
2022/10/14 03:57:13;;;;;;;3.03;1.80;;;;;;;18.38;64.40;96718.88;10539941;28;20026;-30
2022/10/14 04:02:21;;;;;;;1.45;1.23;;;;;;;18.35;64.23;96708.75;10536616;28;20330;-30
2022/10/14 04:07:24;;;;;;;2.20;1.58;;;;;;;18.33;64.49;96700.28;10541244;28;20040;-30
2022/10/14 04:12:29;;;;;;;1.80;1.55;;;;;;;18.34;64.51;96696.91;10540864;28;20073;-32
2022/10/14 04:17:37;;;;;;;2.28;1.42;;;;;;;18.34;64.26;96696.91;10530608;28;20031;-31
2022/10/14 04:22:44;;;;;;;2.97;1.90;;;;;;;18.30;64.26;96675.78;10540602;28;20034;-31
2022/10/14 04:27:47;;;;;;;2.15;1.50;;;;;;;18.34;64.09;96681.72;10543434;28;20032;-30
2022/10/14 04:32:47;;;;;;;2.17;1.40;;;;;;;18.33;64.07;96670.72;10541979;28;20031;-30
2022/10/14 04:37:50;;;;;;;1.90;1.45;;;;;;;18.35;64.00;96668.19;10546623;28;20024;-31
2022/10/14 04:43:00;;;;;;;3.72;1.50;;;;;;;18.41;64.92;96650.44;10540808;28;20035;-30
2022/10/14 04:48:06;;;;;;;4.90;1.80;;;;;;;18.44;64.91;96658.03;10521747;28;20027;-30
2022/10/14 04:53:12;;;;;;;2.17;1.73;;;;;;;18.44;64.78;96645.38;10532341;28;20538;-31
2022/10/14 04:58:19;;;;;;;3.85;2.00;;;;;;;18.38;64.46;96647.91;10539055;28;20038;-30
2022/10/14 05:03:21;;;;;;;6.45;2.25;;;;;;;18.38;64.51;96633.53;10532440;28;20035;-31
2022/10/14 05:08:22;;;;;;;3.53;1.90;;;;;;;18.36;64.39;96626.78;10537123;28;20039;-31
2022/10/14 05:13:26;;;;;;;4.68;2.10;;;;;;;18.34;64.56;96620.88;10537394;28;20360;-30
2022/10/14 05:18:33;;;;;;;4.32;2.33;;;;;;;18.31;64.10;96621.72;10546745;28;20015;-31
2022/10/14 05:23:36;;;;;;;8.15;2.28;;;;;;;18.18;63.43;96620.00;10552861;28;20030;-31
2022/10/14 05:28:37;;;;;;;4.93;2.00;;;;;;;18.27;63.90;96614.09;10545386;28;20027;-31
2022/10/14 05:33:38;;;;;;;4.80;2.20;;;;;;;18.28;64.07;96619.16;10543248;28;20036;-31
2022/10/14 05:38:39;;;;;;;5.13;2.00;;;;;;;18.31;63.93;96615.78;10548215;28;20024;-30
2022/10/14 05:43:39;;;;;;;11.18;3.15;;;;;;;18.31;64.40;96600.59;10539176;28;20043;-31
2022/10/14 05:48:40;;;;;;;7.18;2.63;;;;;;;18.43;64.97;96605.66;10531293;28;20092;-30
2022/10/14 05:53:42;;;;;;;8.65;2.70;;;;;;;18.44;65.06;96602.28;10565444;28;20031;-30
2022/10/14 05:58:47;;;;;;;8.38;2.85;;;;;;;18.43;65.07;96600.59;10539114;28;20027;-31
2022/10/14 06:03:50;;;;;;;9.27;2.42;;;;;;;18.36;64.82;96598.91;10550118;28;20035;-30
2022/10/14 06:08:50;;;;;;;10.90;1.90;;;;;;;18.34;64.33;96605.66;10553993;28;20081;-30
2022/10/14 06:13:51;;;;;;;5.73;1.93;;;;;;;18.34;64.33;96600.59;10563497;28;20036;-30
2022/10/14 06:18:51;;;;;;;4.57;2.03;;;;;;;18.36;64.33;96599.75;10563686;28;20817;-31
2022/10/14 06:23:52;;;;;;;4.13;1.80;;;;;;;18.38;63.89;96594.66;10542446;28;20042;-31
2022/10/14 06:28:52;;;;;;;24.53;4.27;;;;;;;18.43;64.26;96595.50;10564323;28;20670;-30
2022/10/14 06:33:52;;;;;;;7.43;2.27;;;;;;;18.31;63.72;96591.31;10568544;28;20096;-30
2022/10/14 06:38:53;;;;;;;10.23;3.53;;;;;;;18.38;63.92;96587.06;10564770;28;20028;-31
2022/10/14 06:43:53;;;;;;;9.38;2.45;;;;;;;18.44;63.90;96597.19;10562007;28;20249;-32
2022/10/14 06:48:54;;;;;;;11.93;2.70;;;;;;;18.44;64.18;96598.06;10566431;28;20028;-32
2022/10/14 06:53:54;;;;;;;11.43;2.50;;;;;;;18.44;64.79;96598.06;10563088;28;20514;-30
2022/10/14 06:58:55;;;;;;;6.57;2.07;;;;;;;18.43;64.51;96601.41;10563305;28;20040;-30
2022/10/14 07:03:55;;;;;;;3.42;1.65;;;;;;;18.48;64.25;96598.88;10561910;28;20312;-30
2022/10/14 07:08:55;;;;;;;4.60;1.90;;;;;;;18.47;63.88;96610.72;10561009;28;20023;-31
2022/10/14 07:13:56;;;;;;;5.57;1.83;;;;;;;18.47;63.88;96608.19;10562426;28;20035;-30
2022/10/14 07:18:56;;;;;;;5.85;2.00;;;;;;;18.45;64.03;96603.94;10562657;28;20338;-31
2022/10/14 07:23:57;;;;;;;5.33;1.60;;;;;;;18.38;64.02;96604.81;10565779;28;20023;-30
2022/10/14 07:28:58;;;;;;;4.37;2.47;;;;;;;18.46;63.78;96616.63;10559797;28;20024;-30
2022/10/14 07:34:00;;;;;;;3.03;1.63;;;;;;;18.43;63.21;96606.47;10567555;28;20040;-30
2022/10/14 07:39:00;;;;;;;3.08;1.90;;;;;;;18.46;63.72;96620.84;10562041;28;20456;-31
2022/10/14 07:44:05;;;;;;;2.75;1.48;;;;;;;18.47;63.39;96615.78;10564501;28;20084;-30
2022/10/14 07:49:18;;;;;;;1.95;1.50;;;;;;;18.48;63.71;96614.06;10562982;28;20429;-32
2022/10/14 07:54:22;;;;;;;5.78;2.35;;;;;;;18.44;64.63;96615.81;10568615;28;20039;-31
2022/10/14 07:59:24;;;;;;;4.10;1.55;;;;;;;18.43;64.81;96619.16;10559163;28;20027;-31
2022/10/14 08:04:25;;;;;;;4.82;2.00;;;;;;;18.48;64.18;96614.94;10550468;28;20024;-32
2022/10/14 08:09:25;;;;;;;7.63;1.70;;;;;;;18.46;64.76;96615.78;10561718;28;20028;-30
2022/10/14 08:14:26;;;;;;;5.30;2.63;;;;;;;18.48;63.94;96622.53;10560128;28;20081;-32
2022/10/14 08:19:26;;;;;;;5.03;2.10;;;;;;;18.46;64.21;96620.84;10563113;28;20028;-30
2022/10/14 08:24:27;;;;;;;8.52;1.98;;;;;;;18.45;64.42;96619.16;10562765;28;20042;-31
2022/10/14 08:29:27;;;;;;;8.13;3.95;;;;;;;18.38;64.31;96622.53;10558052;28;20028;-31
2022/10/14 08:34:28;;;;;;;8.67;2.80;;;;;;;18.34;64.16;96618.34;10564188;28;20417;-31
2022/10/14 08:39:28;;;;;;;5.10;2.22;;;;;;;18.43;63.84;96625.94;10559928;28;20081;-32
2022/10/14 08:44:42;;;;;;;5.63;2.83;;;;;;;18.39;64.27;96614.09;10554681;28;20038;-30
2022/10/14 08:49:51;;;;;;;3.58;2.30;;;;;;;18.45;63.38;96624.22;10553395;28;20030;-31
2022/10/14 08:54:58;;;;;;;4.90;2.10;;;;;;;18.43;63.65;96620.88;10571735;28;20074;-31
2022/10/14 08:59:58;;;;;;;12.43;6.20;;;;;;;18.44;65.50;96620.00;10567588;28;20560;-32
2022/10/14 09:05:00;;;;;;;10.70;6.87;;;;;;;18.37;65.78;96605.66;10561359;28;20081;-30
2022/10/14 09:10:14;;;;;;;18.58;8.65;;;;;;;18.47;65.33;96623.38;10559546;28;20686;-30
2022/10/14 09:15:14;;;;;;;8.70;3.33;;;;;;;18.46;64.47;96621.72;10557706;28;20162;-30
2022/10/14 09:20:22;;;;;;;4.43;3.00;;;;;;;18.44;64.34;96618.34;10560975;28;20116;-30
2022/10/14 09:25:23;;;;;;;7.97;4.53;;;;;;;18.44;63.83;96612.41;10564983;28;20032;-30
2022/10/14 09:30:23;;;;;;;4.30;2.45;;;;;;;18.44;63.73;96608.19;10561609;28;20622;-31
2022/10/14 09:35:32;;;;;;;4.57;2.60;;;;;;;18.40;63.44;96590.47;10554921;27;20034;-31
2022/10/14 09:40:41;;;;;;;10.57;3.20;;;;;;;18.47;63.17;96605.66;10554988;27;20293;-30
2022/10/14 09:46:09;;;;;;;7.47;3.28;;;;;;;18.46;63.79;96590.44;10547363;28;20055;-30
2022/10/14 09:51:19;;;;;;;4.55;3.40;;;;;;;18.49;64.18;96600.59;10557683;28;20032;-30
2022/10/14 09:56:35;;;;;;;4.32;3.28;;;;;;;18.49;64.25;96592.97;10562316;28;20458;-30
2022/10/14 10:01:47;;;;;;;9.13;5.07;;;;;;;18.49;65.68;96603.13;10564256;28;20035;-30
2022/10/14 10:06:53;;;;;;;15.82;9.38;;;;;;;18.46;65.80;96595.50;10552085;28;20115;-30
2022/10/14 10:11:54;;;;;;;13.80;7.97;;;;;;;18.45;65.91;96599.75;10560644;28;20035;-30
2022/10/14 10:17:06;;;;;;;8.10;4.82;;;;;;;18.49;64.68;96592.97;10553297;28;20032;-31
2022/10/14 10:22:23;;;;;;;7.70;4.00;;;;;;;18.48;64.03;96586.19;10557035;28;20039;-30
2022/10/14 10:27:37;;;;;;;;;;;;;;;18.46;63.74;96575.22;10562098;28;20036;-30
2022/10/14 10:32:54;;;;;;;7.25;4.05;;;;;;;18.45;63.62;96576.06;10566921;28;20003;-31
2022/10/14 10:38:10;;;;;;;6.13;3.72;;;;;;;18.45;63.50;96563.41;10558147;28;20165;-31
2022/10/14 10:43:26;;;;;;;6.00;3.78;;;;;;;18.46;63.49;96567.63;10566106;28;20110;-30
2022/10/14 10:48:39;;;;;;;6.40;3.85;;;;;;;18.46;63.40;96550.72;10550929;28;20024;-30
2022/10/14 10:54:07;;;;;;;7.72;4.03;;;;;;;18.47;63.33;96551.56;10568850;28;20194;-31
2022/10/14 10:59:38;;;;;;;8.43;4.40;;;;;;;18.43;63.60;96549.88;10557197;28;20508;-30
2022/10/14 11:04:48;;;;;;;10.43;6.90;;;;;;;18.44;66.14;96538.91;10562404;28;20042;-30
2022/10/14 11:15:48;;;;;;;4.85;3.63;;;;;;;18.48;64.02;96543.09;10562260;28;20157;-30
2022/10/14 11:21:24;;;;;;;5.50;4.43;;;;;;;18.45;62.89;96532.97;10560778;28;20110;-31
2022/10/14 11:26:40;;;;;;;5.53;3.30;;;;;;;18.44;62.94;96532.16;10562819;28;20044;-30
2022/10/14 11:32:05;;;;;;;5.57;3.90;;;;;;;18.43;62.99;96524.53;10558761;28;20085;-30
2022/10/14 11:37:27;;;;;;;4.88;3.20;;;;;;;18.42;63.00;96507.66;10560752;28;20031;-30
2022/10/14 11:42:40;;;;;;;6.05;4.32;;;;;;;18.41;62.65;96508.50;10561086;28;20070;-30
2022/10/14 11:47:45;;;;;;;5.90;3.05;;;;;;;18.40;62.73;96499.22;10557572;28;20020;-30
2022/10/14 11:53:00;;;;;;;4.05;3.13;;;;;;;18.40;62.62;96497.50;10550137;28;20477;-30
2022/10/14 11:58:25;;;;;;;5.07;4.03;;;;;;;18.39;62.30;96483.16;10562651;28;20105;-31
2022/10/14 12:03:42;;;;;;;10.07;6.35;;;;;;;18.42;66.57;96479.78;10545497;28;20043;-31
2022/10/14 12:08:59;;;;;;;8.73;5.40;;;;;;;18.44;66.22;96478.06;10554493;28;20024;-31
2022/10/14 12:14:10;;;;;;;6.78;4.00;;;;;;;18.46;64.31;96478.91;10559278;28;20043;-30
2022/10/14 12:19:13;;;;;;;5.43;3.35;;;;;;;18.43;63.10;96462.00;10564098;28;20024;-31
2022/10/14 12:24:20;;;;;;;3.38;3.08;;;;;;;18.43;63.07;96456.94;10560292;28;20114;-30
2022/10/14 12:29:27;;;;;;;4.00;3.50;;;;;;;18.42;63.06;96462.03;10554212;28;20026;-31
2022/10/14 12:34:34;;;;;;;5.32;3.72;;;;;;;18.40;62.77;96451.06;10563293;28;20115;-31
2022/10/14 12:39:41;;;;;;;5.60;3.72;;;;;;;18.39;62.77;96441.75;10558204;28;20439;-31
2022/10/14 12:44:54;;;;;;;4.57;4.07;;;;;;;18.40;62.92;96448.53;10562247;28;20035;-30
2022/10/14 12:49:57;;;;;;;5.43;3.60;;;;;;;18.39;62.83;96452.75;10558411;28;20071;-30
2022/10/14 12:55:01;;;;;;;5.45;4.05;;;;;;;18.40;62.94;96458.66;10556640;28;20123;-30
2022/10/14 13:00:23;;;;;;;8.88;4.13;;;;;;;18.41;64.79;96455.28;10563171;28;20063;-31
2022/10/14 13:05:37;;;;;;;7.50;5.13;;;;;;;18.43;66.41;96458.63;10548222;28;20427;-30
2022/10/14 13:10:38;;;;;;;7.72;5.30;;;;;;;18.47;66.30;96457.75;10561307;28;20115;-31
2022/10/14 13:15:49;;;;;;;4.87;3.63;;;;;;;18.42;64.21;96446.81;10565054;28;20545;-30
2022/10/14 13:20:51;;;;;;;5.60;3.70;;;;;;;18.45;63.04;96467.94;10556137;28;20028;-31
2022/10/14 13:25:56;;;;;;;8.38;3.47;;;;;;;18.38;63.34;96480.63;10560319;28;20040;-32
2022/10/14 13:31:09;;;;;;;5.97;3.83;;;;;;;18.42;62.75;96467.09;10564050;28;20028;-30
2022/10/14 13:36:22;;;;;;;5.80;3.60;;;;;;;18.42;62.81;96492.44;10554214;28;20505;-30
2022/10/14 13:41:25;;;;;;;16.35;4.03;;;;;;;18.41;65.06;96493.28;10561937;28;20043;-29
2022/10/14 13:46:43;;;;;;;6.00;3.33;;;;;;;18.39;63.28;96487.38;10569763;28;20028;-30
2022/10/14 13:51:52;;;;;;;13.30;3.50;;;;;;;18.34;63.64;96492.44;10555613;27;20428;-31
2022/10/14 13:56:59;;;;;;;4.55;3.00;;;;;;;18.34;63.25;96505.13;10568264;28;20031;-29
2022/10/14 14:02:02;;;;;;;9.60;4.00;;;;;;;18.25;66.21;96494.16;10565052;28;20043;-30
2022/10/14 14:07:04;;;;;;;7.45;3.80;;;;;;;18.36;66.71;96517.81;10556161;28;20035;-31
2022/10/14 14:12:05;;;;;;;16.13;4.78;;;;;;;18.37;65.78;96519.47;10565950;28;20032;-31
2022/10/14 14:17:13;;;;;;;8.15;3.67;;;;;;;18.34;64.25;96509.38;10567360;28;20023;-30
2022/10/14 14:22:16;;;;;;;7.65;3.17;;;;;;;18.34;64.27;96507.66;10558673;28;20052;-30
2022/10/14 14:27:25;;;;;;;6.80;4.00;;;;;;;18.34;63.99;96494.16;10566826;28;20402;-30
2022/10/14 14:32:29;;;;;;;5.28;3.30;;;;;;;18.33;63.69;96497.53;10563833;28;20028;-30
2022/10/14 14:37:33;;;;;;;5.78;3.10;;;;;;;18.33;63.75;96489.94;10566387;28;20034;-31
2022/10/14 14:42:36;;;;;;;7.10;3.33;;;;;;;18.33;64.08;96490.75;10566619;28;20525;-31
2022/10/14 14:47:37;;;;;;;4.00;3.38;;;;;;;18.33;63.94;96489.94;10568473;28;20038;-31
2022/10/14 14:52:39;;;;;;;3.47;2.90;;;;;;;18.32;63.71;96483.19;10565431;28;20281;-30
2022/10/14 14:57:40;;;;;;;5.32;3.28;;;;;;;18.32;63.83;96471.34;10552134;28;20078;-30
2022/10/14 15:02:40;;;;;;;5.93;3.57;;;;;;;18.34;66.55;96468.81;10563717;28;20063;-30
2022/10/14 15:07:42;;;;;;;4.40;3.08;;;;;;;18.34;66.38;96459.50;10553091;28;20381;-30
2022/10/14 15:12:52;;;;;;;5.55;3.38;;;;;;;18.36;65.17;96462.03;10553146;28;20032;-31
2022/10/14 15:18:18;;;;;;;4.65;2.60;;;;;;;18.33;64.04;96462.06;10566522;28;20027;-30
2022/10/14 15:23:40;;;;;;;4.10;2.67;;;;;;;18.34;64.41;96456.16;10556274;27;20165;-31
2022/10/14 15:28:40;;;;;;;2.80;2.38;;;;;;;18.32;63.65;96455.31;10561558;28;20069;-32
2022/10/14 15:33:41;;;;;;;5.23;3.03;;;;;;;18.34;64.79;96448.53;10562429;28;20035;-31
2022/10/14 15:38:41;;;;;;;4.47;2.60;;;;;;;18.28;63.17;96438.38;10556387;28;20028;-30
2022/10/14 15:43:42;;;;;;;4.30;3.08;;;;;;;18.33;63.78;96441.78;10552978;28;20032;-31
2022/10/14 15:48:49;;;;;;;9.20;3.40;;;;;;;18.35;66.54;96422.34;10542380;28;20106;-30
2022/10/14 15:53:51;;;;;;;11.57;3.75;;;;;;;18.39;65.78;96422.31;10551243;28;20851;-30
2022/10/14 15:58:51;;;;;;;11.00;3.13;;;;;;;18.36;64.93;96431.63;10541640;28;20027;-30
2022/10/14 16:03:53;;;;;;;9.90;3.50;;;;;;;18.31;64.98;96415.59;10536960;28;20183;-30
2022/10/14 16:08:53;;;;;;;6.88;2.85;;;;;;;18.31;64.24;96406.31;10552180;28;20436;-30
2022/10/14 16:13:54;;;;;;;6.22;3.40;;;;;;;18.31;63.29;96402.91;10555911;28;20043;-30
2022/10/14 16:18:55;;;;;;;4.18;2.60;;;;;;;18.22;64.34;96392.78;10559312;28;20178;-31
2022/10/14 16:23:57;;;;;;;6.40;3.70;;;;;;;18.29;64.36;96386.84;10558341;28;20028;-31
2022/10/14 16:28:59;;;;;;;6.22;2.97;;;;;;;18.33;63.81;96388.56;10552324;28;20028;-30
2022/10/14 16:34:00;;;;;;;6.30;2.38;;;;;;;18.31;63.71;96387.72;10564375;28;20168;-30
2022/10/14 16:39:01;;;;;;;5.55;2.70;;;;;;;18.31;64.07;96382.63;10563581;28;20077;-30
2022/10/14 16:44:02;;;;;;;9.07;3.20;;;;;;;18.32;66.75;96374.22;10564332;28;20031;-31
2022/10/14 16:49:02;;;;;;;10.13;3.17;;;;;;;18.33;66.55;96369.13;10563262;28;20039;-30
2022/10/14 16:54:03;;;;;;;6.17;3.07;;;;;;;18.34;64.96;96375.03;10567544;28;20128;-35
2022/10/14 16:59:04;;;;;;;5.97;2.30;;;;;;;18.31;64.44;96364.91;10562325;28;20031;-31
2022/10/14 17:04:05;;;;;;;4.82;2.30;;;;;;;18.31;64.00;96349.69;10566883;28;20061;-31
2022/10/14 17:09:05;;;;;;;3.80;2.90;;;;;;;18.31;64.10;96350.56;10564221;28;20131;-34
2022/10/14 17:14:05;;;;;;;3.75;2.22;;;;;;;18.27;63.71;96345.47;10565825;28;20019;-30
2022/10/14 17:19:06;;;;;;;5.53;2.10;;;;;;;18.33;63.62;96350.56;10572128;28;20501;-32
2022/10/14 17:24:06;;;;;;;4.03;2.13;;;;;;;18.25;63.47;96342.13;10570847;28;20282;-31
2022/10/14 17:29:07;;;;;;;4.15;2.33;;;;;;;18.29;63.47;96341.22;10563263;28;20107;-30
2022/10/14 17:34:08;;;;;;;2.67;2.05;;;;;;;18.30;63.69;96335.34;10570988;28;20023;-30
2022/10/14 17:39:15;;;;;;;6.85;2.42;;;;;;;18.30;65.89;96335.34;10568623;28;20027;-31
2022/10/14 17:44:16;;;;;;;3.25;2.75;;;;;;;18.30;66.55;96332.81;10566913;28;20028;-30
2022/10/14 17:49:16;;;;;;;4.47;2.47;;;;;;;18.34;66.14;96342.91;10569396;28;20036;-29
2022/10/14 17:54:17;;;;;;;2.90;2.00;;;;;;;18.26;64.80;96344.63;10574833;28;20292;-30
2022/10/14 17:59:17;;;;;;;3.63;2.35;;;;;;;18.31;64.34;96353.09;10570975;28;20358;-31
2022/10/14 18:04:17;;;;;;;6.13;3.03;;;;;;;18.30;64.40;96348.88;10568935;28;20038;-30
2022/10/14 18:09:18;;;;;;;4.33;2.27;;;;;;;18.29;64.35;96349.72;10563897;28;20043;-30
2022/10/14 18:14:18;;;;;;;2.33;2.00;;;;;;;18.29;63.72;96338.69;10560208;28;20294;-30
2022/10/14 18:19:19;;;;;;;3.27;2.37;;;;;;;18.29;63.51;96333.63;10564923;28;20024;-30
2022/10/14 18:24:19;;;;;;;2.80;2.10;;;;;;;18.30;63.86;96336.19;10564506;28;20036;-30
2022/10/14 18:29:20;;;;;;;4.10;3.00;;;;;;;18.30;64.00;96327.75;10565915;28;20409;-30
2022/10/14 18:34:21;;;;;;;3.78;1.95;;;;;;;18.24;63.25;96310.84;10566355;28;20396;-33
2022/10/14 18:39:21;;;;;;;5.85;2.65;;;;;;;18.31;66.02;96320.13;10561822;28;20578;-31
2022/10/14 18:44:22;;;;;;;3.42;2.40;;;;;;;18.31;66.77;96319.28;10563140;28;20031;-30
2022/10/14 18:49:22;;;;;;;3.43;2.43;;;;;;;18.34;66.33;96301.56;10563069;28;20031;-31
2022/10/14 18:54:23;;;;;;;3.30;2.40;;;;;;;18.32;64.65;96295.66;10568409;28;20311;-31
2022/10/14 18:59:24;;;;;;;4.03;2.22;;;;;;;18.31;64.13;96291.41;10563102;28;20726;-32
2022/10/14 19:04:28;;;;;;;2.42;1.83;;;;;;;18.27;63.83;96275.38;10565021;28;20118;-30
2022/10/14 19:09:30;;;;;;;2.78;1.92;;;;;;;18.28;63.62;96276.22;10563826;28;20036;-31
2022/10/14 19:14:31;;;;;;;3.83;2.78;;;;;;;18.29;63.70;96268.63;10560544;28;20055;-31
2022/10/14 19:19:31;;;;;;;2.47;1.73;;;;;;;18.30;63.49;96269.47;10562692;28;20028;-31
2022/10/14 19:24:31;;;;;;;4.20;1.83;;;;;;;18.29;63.51;96262.69;10559769;28;20677;-32
2022/10/14 19:29:32;;;;;;;4.13;2.53;;;;;;;18.27;64.14;96260.19;10560120;28;20027;-31
2022/10/14 19:34:32;;;;;;;4.57;2.15;;;;;;;18.35;66.03;96268.56;10559298;28;20031;-32
2022/10/14 19:39:33;;;;;;;5.17;2.73;;;;;;;18.26;66.08;96257.66;10565297;28;20069;-31
2022/10/14 19:44:34;;;;;;;4.93;2.25;;;;;;;18.35;66.97;96250.84;10550186;28;20398;-31
2022/10/14 19:49:35;;;;;;;6.17;2.50;;;;;;;18.34;66.53;96251.69;10555848;28;20027;-31
2022/10/14 19:54:35;;;;;;;3.92;2.00;;;;;;;18.29;65.44;96228.09;10558580;28;20114;-31
2022/10/14 19:59:35;;;;;;;4.23;2.13;;;;;;;18.27;65.31;96234.84;10555676;28;20409;-32
2022/10/14 20:04:36;;;;;;;4.23;2.30;;;;;;;18.32;64.58;96243.25;10556634;28;20054;-32
2022/10/14 20:09:36;;;;;;;6.00;2.13;;;;;;;18.28;64.30;96221.31;10556078;28;20084;-30
2022/10/14 20:14:36;;;;;;;3.17;2.20;;;;;;;18.32;64.51;96229.78;10554824;28;21272;-31
2022/10/14 20:19:37;;;;;;;6.50;2.63;;;;;;;18.27;63.63;96209.50;10555436;28;20486;-33
2022/10/14 20:24:38;;;;;;;4.35;2.10;;;;;;;18.32;63.53;96217.09;10561396;28;20099;-31
2022/10/14 20:29:39;;;;;;;2.80;1.42;;;;;;;18.33;63.45;96206.09;10557596;28;20032;-31
2022/10/14 20:34:39;;;;;;;10.57;1.70;;;;;;;18.30;63.43;96201.03;10551300;28;20053;-31
2022/10/14 20:39:40;;;;;;;3.47;1.90;;;;;;;18.37;66.75;96200.16;10560532;28;20080;-32
2022/10/14 20:44:40;;;;;;;5.72;2.22;;;;;;;18.35;67.03;96192.53;10554126;28;20508;-31
2022/10/14 20:49:41;;;;;;;2.87;2.00;;;;;;;18.35;65.87;96176.53;10561744;28;20536;-31
2022/10/14 20:54:42;;;;;;;4.13;2.15;;;;;;;18.35;65.74;96191.72;10559629;28;20319;-31
2022/10/14 20:59:42;;;;;;;3.33;1.93;;;;;;;18.34;65.21;96185.81;10562065;28;20159;-31
2022/10/14 21:04:50;;;;;;;4.57;1.57;;;;;;;18.34;65.21;96164.69;10565446;28;20294;-31
2022/10/14 21:09:50;;;;;;;3.55;2.20;;;;;;;18.34;65.40;96159.63;10564221;28;20092;-31
2022/10/14 21:14:51;;;;;;;2.97;2.67;;;;;;;18.33;63.92;96168.09;10561246;28;20036;-30
2022/10/14 21:19:51;;;;;;;5.15;2.13;;;;;;;18.29;64.98;96151.19;10564597;28;20711;-30
2022/10/14 21:24:51;;;;;;;4.17;2.03;;;;;;;18.33;64.41;96158.78;10562731;28;20518;-28
2022/10/14 21:29:52;;;;;;;4.27;1.83;;;;;;;18.34;64.43;96160.47;10561645;28;20035;-29
2022/10/14 21:34:52;;;;;;;6.57;1.90;;;;;;;18.33;65.77;96174.00;10566677;28;20091;-30
2022/10/14 21:39:52;;;;;;;13.50;1.87;;;;;;;18.36;67.17;96163.00;10564018;28;20397;-32
2022/10/14 21:44:53;;;;;;;4.50;1.93;;;;;;;18.39;67.39;96155.34;10563699;28;20281;-29
2022/10/14 21:49:54;;;;;;;4.43;1.90;;;;;;;18.39;67.57;96152.81;10564531;28;20110;-29
2022/10/14 21:54:54;;;;;;;5.00;1.80;;;;;;;18.37;66.40;96149.47;10563760;28;20032;-26
2022/10/14 21:59:55;;;;;;;6.03;1.80;;;;;;;18.33;65.79;96142.75;10566111;28;20023;-30
2022/10/14 22:04:55;;;;;;;2.90;1.60;;;;;;;18.36;65.64;96145.25;10563193;28;20554;-29
2022/10/14 22:09:55;;;;;;;2.67;1.80;;;;;;;18.30;64.74;96132.63;10559307;28;20031;-29
2022/10/14 22:14:56;;;;;;;3.90;2.13;;;;;;;18.34;65.52;96126.69;10562495;28;20031;-29
2022/10/14 22:19:57;;;;;;;6.40;2.40;;;;;;;18.35;65.19;96125.84;10564003;28;20474;-28
2022/10/14 22:24:58;;;;;;;1.92;1.58;;;;;;;18.34;64.79;96109.78;10564221;28;20309;-29
2022/10/14 22:29:58;;;;;;;2.33;1.70;;;;;;;18.35;65.21;96130.91;10562051;28;20042;-29
2022/10/14 22:34:58;;;;;;;2.83;1.73;;;;;;;18.27;64.35;96118.28;10565533;28;20027;-29
2022/10/14 22:39:59;;;;;;;3.53;2.17;;;;;;;18.35;66.83;96126.66;10569259;28;20046;-30
2022/10/14 22:44:59;;;;;;;2.80;1.40;;;;;;;18.35;67.27;96128.38;10565028;28;20059;-28
2022/10/14 22:49:59;;;;;;;4.17;1.60;;;;;;;18.36;67.14;96130.91;10562759;28;20088;-30
2022/10/14 22:55:00;;;;;;;1.80;1.43;;;;;;;18.34;66.00;96131.75;10562450;28;20032;-30
2022/10/14 23:00:02;;;;;;;4.88;1.52;;;;;;;18.34;65.66;96134.28;10563896;28;20031;-30
2022/10/14 23:05:03;;;;;;;4.15;2.05;;;;;;;18.31;65.99;96114.88;10559560;28;20400;-29
2022/10/14 23:10:04;;;;;;;2.08;1.50;;;;;;;18.34;65.80;96121.63;10557786;28;20024;-29
2022/10/14 23:15:05;;;;;;;2.95;1.58;;;;;;;18.29;65.83;96114.06;10562537;28;20030;-29
2022/10/14 23:20:06;;;;;;;2.25;1.45;;;;;;;18.34;65.50;96114.03;10561279;28;20493;-29
2022/10/14 23:25:07;;;;;;;2.40;1.35;;;;;;;18.35;64.97;96110.63;10561263;28;20110;-29
2022/10/14 23:30:07;;;;;;;2.58;1.50;;;;;;;18.25;65.66;96104.75;10563341;28;20485;-28
2022/10/14 23:35:08;;;;;;;1.77;1.50;;;;;;;18.34;64.48;96106.41;10561530;28;20493;-29
2022/10/14 23:40:09;;;;;;;1.98;1.38;;;;;;;18.30;67.10;96109.81;10565880;28;20055;-30